createdAt,value
2022-08-18T00:00:59.220Z,26.29
2022-08-18T00:01:59.310Z,26.29
2022-08-18T00:03:01.409Z,26.24
2022-08-18T00:04:03.366Z,26.24
2022-08-18T00:04:59.385Z,26.24
2022-08-18T00:05:59.420Z,26.17
2022-08-18T00:06:59.464Z,26.24
2022-08-18T00:07:59.506Z,26.17
2022-08-18T00:08:59.600Z,26.29
2022-08-18T00:09:59.585Z,26.24
2022-08-18T00:10:59.622Z,26.20
2022-08-18T00:11:59.664Z,26.23
2022-08-18T00:13:01.303Z,26.19
2022-08-18T00:13:59.743Z,26.16
2022-08-18T00:14:59.783Z,26.20
2022-08-18T00:15:59.826Z,26.23
2022-08-18T00:16:59.880Z,26.17
2022-08-18T00:17:59.907Z,26.21
2022-08-18T00:19:00.605Z,26.20
2022-08-18T00:19:59.988Z,26.11
2022-08-18T00:21:00.024Z,26.20
2022-08-18T00:22:00.066Z,26.27
2022-08-18T00:23:00.104Z,26.21
2022-08-18T00:24:00.147Z,26.19
2022-08-18T00:25:00.189Z,26.13
2022-08-18T00:26:00.264Z,26.17
2022-08-18T00:27:00.264Z,26.21
2022-08-18T00:28:00.307Z,26.24
2022-08-18T00:29:00.343Z,26.20
2022-08-18T00:30:00.393Z,26.16
2022-08-18T00:31:00.427Z,26.08
2022-08-18T00:32:00.466Z,26.13
2022-08-18T00:33:00.504Z,26.17
2022-08-18T00:34:00.560Z,26.08
2022-08-18T00:35:00.587Z,26.11
2022-08-18T00:36:00.632Z,26.06
2022-08-18T00:37:00.664Z,26.00
2022-08-18T00:38:00.705Z,26.12
2022-08-18T00:39:00.749Z,26.09
2022-08-18T00:40:00.805Z,26.08
2022-08-18T00:41:00.924Z,26.09
2022-08-18T00:42:00.869Z,26.08
2022-08-18T00:43:00.907Z,26.00
2022-08-18T00:44:00.947Z,25.97
2022-08-18T00:45:01.004Z,26.00
2022-08-18T00:46:01.028Z,26.06
2022-08-18T00:47:01.070Z,26.00
2022-08-18T00:48:01.109Z,25.98
2022-08-18T00:49:01.145Z,26.04
2022-08-18T00:50:01.197Z,26.01
2022-08-18T00:51:01.238Z,26.06
2022-08-18T00:52:01.267Z,25.97
2022-08-18T00:53:01.306Z,26.00
2022-08-18T00:54:01.347Z,26.03
2022-08-18T00:55:01.388Z,25.91
2022-08-18T00:56:01.430Z,25.90
2022-08-18T00:57:01.471Z,26.04
2022-08-18T00:58:01.519Z,26.01
2022-08-18T00:59:01.554Z,25.91
2022-08-18T01:00:01.595Z,26.04
2022-08-18T01:01:01.690Z,25.94
2022-08-18T01:02:01.673Z,25.93
2022-08-18T01:03:01.710Z,26.00
2022-08-18T01:04:01.750Z,25.97
2022-08-18T01:05:01.795Z,25.93
2022-08-18T01:06:01.829Z,25.93
2022-08-18T01:07:01.868Z,25.96
2022-08-18T01:08:01.909Z,25.94
2022-08-18T01:09:01.947Z,25.96
2022-08-18T01:10:01.994Z,25.79
2022-08-18T01:11:02.031Z,25.89
2022-08-18T01:12:02.070Z,25.89
2022-08-18T01:13:02.106Z,25.79
2022-08-18T01:14:02.156Z,25.93
2022-08-18T01:15:02.188Z,25.81
2022-08-18T01:16:02.229Z,25.81
2022-08-18T01:17:02.267Z,25.74
2022-08-18T01:18:02.311Z,25.74
2022-08-18T01:19:02.353Z,25.75
2022-08-18T01:20:02.388Z,25.67
2022-08-18T01:21:02.427Z,25.66
2022-08-18T01:22:02.475Z,25.72
2022-08-18T01:23:02.511Z,25.61
2022-08-18T01:24:02.549Z,25.66
2022-08-18T01:25:02.587Z,25.60
2022-08-18T01:26:02.635Z,25.56
2022-08-18T01:27:02.669Z,25.59
2022-08-18T01:28:02.707Z,25.54
2022-08-18T01:29:02.750Z,25.48
2022-08-18T01:30:02.789Z,25.48
2022-08-18T01:31:02.828Z,25.45
2022-08-18T01:32:02.868Z,25.44
2022-08-18T01:33:02.908Z,25.41
2022-08-18T01:34:02.963Z,25.44
2022-08-18T01:35:02.992Z,25.36
2022-08-18T01:36:03.027Z,25.38
2022-08-18T01:37:03.065Z,25.31
2022-08-18T01:38:03.120Z,25.36
2022-08-18T01:39:03.153Z,25.36
2022-08-18T01:41:17.375Z,25.35
2022-08-18T01:41:28.474Z,25.35
2022-08-18T01:42:03.329Z,25.34
2022-08-18T01:43:03.318Z,25.30
2022-08-18T01:44:03.357Z,25.29
2022-08-18T01:45:03.414Z,25.22
2022-08-18T01:46:03.450Z,25.24
2022-08-18T01:47:03.487Z,25.26
2022-08-18T01:48:03.901Z,25.26
2022-08-18T01:49:03.555Z,25.24
2022-08-18T01:50:03.598Z,25.23
2022-08-18T01:51:03.639Z,25.17
2022-08-18T01:52:03.676Z,25.12
2022-08-18T01:53:03.717Z,25.09
2022-08-18T01:54:03.755Z,25.22
2022-08-18T01:55:03.792Z,25.22
2022-08-18T01:56:03.834Z,25.20
2022-08-18T01:57:03.880Z,25.17
2022-08-18T01:58:03.913Z,25.19
2022-08-18T01:59:03.956Z,25.16
2022-08-18T02:00:03.995Z,25.20
2022-08-18T02:01:04.029Z,25.14
2022-08-18T02:02:04.102Z,25.11
2022-08-18T02:03:04.111Z,25.14
2022-08-18T02:04:23.722Z,25.09
2022-08-18T02:05:04.190Z,25.07
2022-08-18T02:06:04.240Z,25.11
2022-08-18T02:07:04.469Z,25.16
2022-08-18T02:08:04.319Z,25.09
2022-08-18T02:09:04.350Z,25.08
2022-08-18T02:10:04.392Z,25.09
2022-08-18T02:11:04.446Z,25.09
2022-08-18T02:12:04.469Z,25.01
2022-08-18T02:13:04.517Z,25.09
2022-08-18T02:14:04.548Z,25.09
2022-08-18T02:15:04.606Z,25.07
2022-08-18T02:16:04.632Z,25.02
2022-08-18T02:17:04.677Z,25.05
2022-08-18T02:18:04.715Z,25.05
2022-08-18T02:19:04.753Z,25.04
2022-08-18T02:20:04.788Z,25.01
2022-08-18T02:21:04.824Z,25.05
2022-08-18T02:22:04.891Z,25.02
2022-08-18T02:23:04.909Z,24.97
2022-08-18T02:24:04.945Z,25.09
2022-08-18T02:25:04.994Z,25.02
2022-08-18T02:26:05.026Z,25.05
2022-08-18T02:27:05.067Z,24.98
2022-08-18T02:28:05.117Z,25.01
2022-08-18T02:29:05.139Z,24.93
2022-08-18T02:30:05.199Z,25.02
2022-08-18T02:31:05.221Z,24.98
2022-08-18T02:32:05.261Z,24.92
2022-08-18T02:33:05.300Z,24.97
2022-08-18T02:34:05.342Z,24.90
2022-08-18T02:35:05.865Z,24.97
2022-08-18T02:36:05.421Z,24.87
2022-08-18T02:37:05.470Z,24.98
2022-08-18T02:38:05.499Z,24.92
2022-08-18T02:39:05.549Z,24.89
2022-08-18T02:40:05.675Z,24.93
2022-08-18T02:41:05.615Z,24.89
2022-08-18T02:42:05.656Z,24.83
2022-08-18T02:43:05.695Z,24.80
2022-08-18T02:44:05.737Z,24.84
2022-08-18T02:45:05.774Z,24.89
2022-08-18T02:46:05.818Z,24.79
2022-08-18T02:47:05.856Z,24.75
2022-08-18T02:48:05.897Z,24.71
2022-08-18T02:49:05.930Z,24.79
2022-08-18T02:50:05.972Z,24.71
2022-08-18T02:51:06.011Z,24.74
2022-08-18T02:52:06.067Z,24.74
2022-08-18T02:53:06.090Z,24.70
2022-08-18T02:54:06.130Z,24.74
2022-08-18T02:55:06.172Z,24.74
2022-08-18T02:56:06.211Z,24.75
2022-08-18T02:57:06.249Z,24.68
2022-08-18T02:58:06.288Z,24.64
2022-08-18T02:59:06.334Z,24.66
2022-08-18T03:00:06.366Z,24.60
2022-08-18T03:01:06.449Z,24.64
2022-08-18T03:02:06.444Z,24.63
2022-08-18T03:03:06.512Z,24.60
2022-08-18T03:04:06.528Z,24.59
2022-08-18T03:05:06.561Z,24.60
2022-08-18T03:06:06.603Z,24.59
2022-08-18T03:07:06.648Z,24.61
2022-08-18T03:08:06.683Z,24.60
2022-08-18T03:09:06.723Z,24.60
2022-08-18T03:10:06.760Z,24.59
2022-08-18T03:11:06.798Z,24.61
2022-08-18T03:12:06.839Z,24.61
2022-08-18T03:13:06.886Z,24.61
2022-08-18T03:14:08.706Z,24.61
2022-08-18T03:15:06.957Z,24.44
2022-08-18T03:16:06.998Z,24.60
2022-08-18T03:17:07.034Z,24.46
2022-08-18T03:18:07.077Z,24.49
2022-08-18T03:19:07.113Z,24.45
2022-08-18T03:20:07.166Z,24.42
2022-08-18T03:21:07.633Z,24.51
2022-08-18T03:22:11.052Z,24.46
2022-08-18T03:23:09.867Z,24.48
2022-08-18T03:24:09.292Z,24.44
2022-08-18T03:25:07.348Z,24.49
2022-08-18T03:26:07.389Z,24.46
2022-08-18T03:27:07.435Z,24.48
2022-08-18T03:28:07.469Z,24.49
2022-08-18T03:29:07.506Z,24.46
2022-08-18T03:30:11.346Z,24.52
2022-08-18T03:31:07.587Z,24.49
2022-08-18T03:32:07.635Z,24.45
2022-08-18T03:33:07.663Z,24.48
2022-08-18T03:34:07.705Z,24.44
2022-08-18T03:35:07.743Z,24.42
2022-08-18T03:36:07.790Z,24.37
2022-08-18T03:37:07.855Z,24.41
2022-08-18T03:38:07.874Z,24.44
2022-08-18T03:39:07.904Z,24.45
2022-08-18T03:40:08.048Z,24.45
2022-08-18T03:41:07.978Z,24.42
2022-08-18T03:42:08.017Z,24.39
2022-08-18T03:43:27.875Z,24.44
2022-08-18T03:44:08.098Z,24.46
2022-08-18T03:45:12.475Z,24.44
2022-08-18T03:46:08.188Z,24.42
2022-08-18T03:47:08.223Z,24.41
2022-08-18T03:48:08.260Z,24.42
2022-08-18T03:49:08.297Z,24.42
2022-08-18T03:50:08.334Z,24.41
2022-08-18T03:51:08.370Z,24.36
2022-08-18T03:52:08.421Z,24.41
2022-08-18T03:53:08.450Z,24.44
2022-08-18T03:54:08.494Z,24.46
2022-08-18T03:55:08.536Z,24.46
2022-08-18T03:56:08.575Z,24.34
2022-08-18T03:57:08.607Z,24.44
2022-08-18T03:58:08.649Z,24.36
2022-08-18T03:59:08.688Z,24.34
2022-08-18T04:00:08.726Z,24.37
2022-08-18T04:01:08.812Z,24.42
2022-08-18T04:02:08.802Z,24.37
2022-08-18T04:03:08.843Z,24.39
2022-08-18T04:04:08.883Z,24.48
2022-08-18T04:05:08.927Z,24.36
2022-08-18T04:06:12.568Z,24.37
2022-08-18T04:07:09.000Z,24.44
2022-08-18T04:08:09.039Z,24.44
2022-08-18T04:09:09.079Z,24.49
2022-08-18T04:10:19.127Z,24.37
2022-08-18T04:11:09.156Z,24.45
2022-08-18T04:12:09.197Z,24.44
2022-08-18T04:13:09.236Z,24.42
2022-08-18T04:14:09.318Z,24.44
2022-08-18T04:15:09.324Z,24.42
2022-08-18T04:16:09.352Z,24.45
2022-08-18T04:17:09.391Z,24.36
2022-08-18T04:18:09.619Z,24.42
2022-08-18T04:19:09.476Z,24.42
2022-08-18T04:20:09.511Z,24.42
2022-08-18T04:21:09.555Z,24.37
2022-08-18T04:22:09.589Z,24.42
2022-08-18T04:23:09.630Z,24.46
2022-08-18T04:24:09.667Z,24.48
2022-08-18T04:25:09.707Z,24.42
2022-08-18T04:26:09.745Z,24.51
2022-08-18T04:27:09.787Z,24.44
2022-08-18T04:28:09.824Z,24.44
2022-08-18T04:29:09.865Z,24.52
2022-08-18T04:30:09.901Z,24.49
2022-08-18T04:31:10.293Z,24.49
2022-08-18T04:32:09.982Z,24.49
2022-08-18T04:33:10.020Z,24.46
2022-08-18T04:34:10.058Z,24.49
2022-08-18T04:35:14.052Z,24.49
2022-08-18T04:36:10.136Z,24.45
2022-08-18T04:37:10.199Z,24.45
2022-08-18T04:38:10.216Z,24.46
2022-08-18T04:39:10.255Z,24.49
2022-08-18T04:40:10.349Z,24.52
2022-08-18T04:41:10.336Z,24.55
2022-08-18T04:42:10.376Z,24.53
2022-08-18T04:43:10.413Z,24.41
2022-08-18T04:44:10.453Z,24.44
2022-08-18T04:45:10.491Z,24.55
2022-08-18T04:46:10.529Z,24.52
2022-08-18T04:47:10.569Z,24.55
2022-08-18T04:48:10.609Z,24.61
2022-08-18T04:49:10.687Z,24.55
2022-08-18T04:50:10.692Z,24.60
2022-08-18T04:51:10.729Z,24.56
2022-08-18T04:52:37.605Z,24.61
2022-08-18T04:53:10.804Z,24.61
2022-08-18T04:54:10.846Z,24.56
2022-08-18T04:55:10.922Z,24.63
2022-08-18T04:56:10.925Z,24.59
2022-08-18T04:57:10.965Z,24.60
2022-08-18T04:58:11.014Z,24.60
2022-08-18T04:59:11.042Z,24.59
2022-08-18T05:00:11.079Z,24.56
2022-08-18T05:01:11.190Z,24.63
2022-08-18T05:02:14.686Z,24.63
2022-08-18T05:03:11.200Z,24.53
2022-08-18T05:04:11.237Z,24.56
2022-08-18T05:05:11.362Z,24.67
2022-08-18T05:06:11.313Z,24.56
2022-08-18T05:07:11.359Z,24.67
2022-08-18T05:08:11.395Z,24.60
2022-08-18T05:09:11.442Z,24.60
2022-08-18T05:10:11.498Z,24.66
2022-08-18T05:11:11.513Z,24.74
2022-08-18T05:12:11.554Z,24.70
2022-08-18T05:13:11.591Z,24.75
2022-08-18T05:14:11.629Z,24.71
2022-08-18T05:15:11.671Z,24.77
2022-08-18T05:16:16.678Z,24.74
2022-08-18T05:17:11.747Z,24.74
2022-08-18T05:18:11.821Z,24.71
2022-08-18T05:19:11.828Z,24.77
2022-08-18T05:20:11.866Z,24.71
2022-08-18T05:21:11.905Z,24.74
2022-08-18T05:22:11.945Z,24.77
2022-08-18T05:23:11.986Z,24.75
2022-08-18T05:24:12.025Z,24.79
2022-08-18T05:25:12.068Z,24.75
2022-08-18T05:26:12.104Z,24.86
2022-08-18T05:27:12.140Z,24.83
2022-08-18T05:28:12.187Z,24.84
2022-08-18T05:29:18.572Z,24.92
2022-08-18T05:30:12.257Z,24.87
2022-08-18T05:31:13.923Z,24.84
2022-08-18T05:32:12.350Z,24.94
2022-08-18T05:33:12.378Z,24.89
2022-08-18T05:34:12.418Z,24.87
2022-08-18T05:35:12.459Z,24.87
2022-08-18T05:36:12.499Z,24.89
2022-08-18T05:37:12.535Z,24.89
2022-08-18T05:38:12.578Z,24.98
2022-08-18T05:39:12.613Z,24.99
2022-08-18T05:40:12.707Z,24.99
2022-08-18T05:41:13.814Z,25.01
2022-08-18T05:42:12.737Z,25.02
2022-08-18T05:43:12.773Z,24.97
2022-08-18T05:44:12.809Z,24.99
2022-08-18T05:45:12.856Z,25.07
2022-08-18T05:46:12.887Z,25.02
2022-08-18T05:47:12.933Z,24.99
2022-08-18T05:48:12.970Z,25.05
2022-08-18T05:49:13.018Z,25.09
2022-08-18T05:50:13.047Z,25.05
2022-08-18T05:51:13.087Z,25.09
2022-08-18T05:52:13.125Z,25.12
2022-08-18T05:53:14.024Z,25.11
2022-08-18T05:54:13.203Z,25.14
2022-08-18T05:55:13.244Z,25.17
2022-08-18T05:56:13.283Z,25.20
2022-08-18T05:57:13.327Z,25.09
2022-08-18T05:58:13.362Z,25.14
2022-08-18T05:59:13.402Z,25.22
2022-08-18T06:00:13.450Z,25.22
2022-08-18T06:01:13.481Z,25.27
2022-08-18T06:02:13.520Z,25.26
2022-08-18T06:03:13.618Z,25.27
2022-08-18T06:04:13.598Z,25.34
2022-08-18T06:05:13.639Z,25.22
2022-08-18T06:06:14.413Z,25.30
2022-08-18T06:07:13.725Z,25.30
2022-08-18T06:08:13.757Z,25.36
2022-08-18T06:09:13.825Z,25.31
2022-08-18T06:10:13.844Z,25.45
2022-08-18T06:11:17.132Z,25.34
2022-08-18T06:12:13.944Z,25.36
2022-08-18T06:13:13.956Z,25.35
2022-08-18T06:14:13.997Z,25.42
2022-08-18T06:15:14.040Z,25.42
2022-08-18T06:16:14.076Z,25.39
2022-08-18T06:17:14.115Z,25.51
2022-08-18T06:18:14.153Z,25.54
2022-08-18T06:19:14.194Z,25.51
2022-08-18T06:20:14.236Z,25.48
2022-08-18T06:21:14.275Z,25.54
2022-08-18T06:22:14.311Z,25.53
2022-08-18T06:23:14.353Z,25.53
2022-08-18T06:24:14.392Z,25.54
2022-08-18T06:25:14.430Z,25.56
2022-08-18T06:26:14.471Z,25.59
2022-08-18T06:27:14.511Z,25.56
2022-08-18T06:28:14.554Z,25.64
2022-08-18T06:29:14.593Z,25.60
2022-08-18T06:30:14.630Z,25.59
2022-08-18T06:31:14.677Z,25.71
2022-08-18T06:32:14.710Z,25.66
2022-08-18T06:33:14.755Z,25.66
2022-08-18T06:34:14.788Z,25.71
2022-08-18T06:35:14.830Z,25.69
2022-08-18T06:36:19.289Z,25.78
2022-08-18T06:37:14.911Z,25.78
2022-08-18T06:38:14.947Z,25.76
2022-08-18T06:39:14.993Z,25.78
2022-08-18T06:40:15.085Z,25.79
2022-08-18T06:41:37.968Z,25.82
2022-08-18T06:42:15.105Z,25.86
2022-08-18T06:43:15.158Z,25.86
2022-08-18T06:44:15.187Z,25.85
2022-08-18T06:45:15.226Z,25.79
2022-08-18T06:46:15.264Z,25.98
2022-08-18T06:47:15.308Z,25.90
2022-08-18T06:48:15.942Z,25.90
2022-08-18T06:49:15.386Z,25.91
2022-08-18T06:50:15.430Z,25.91
2022-08-18T06:51:15.467Z,25.86
2022-08-18T06:52:15.505Z,25.94
2022-08-18T06:53:26.814Z,25.94
2022-08-18T06:54:15.584Z,25.98
2022-08-18T06:55:15.630Z,25.93
2022-08-18T06:56:26.599Z,26.00
2022-08-18T06:57:15.704Z,25.98
2022-08-18T06:58:15.769Z,26.01
2022-08-18T06:59:15.785Z,26.00
2022-08-18T07:00:15.829Z,26.01
2022-08-18T07:01:15.904Z,25.97
2022-08-18T07:02:15.912Z,25.98
2022-08-18T07:03:15.948Z,26.09
2022-08-18T07:04:15.986Z,26.13
2022-08-18T07:05:16.033Z,26.08
2022-08-18T07:06:16.075Z,26.16
2022-08-18T07:07:16.105Z,26.09
2022-08-18T07:08:16.145Z,26.17
2022-08-18T07:09:16.184Z,26.21
2022-08-18T07:10:16.223Z,26.23
2022-08-18T07:11:16.265Z,26.17
2022-08-18T07:12:16.303Z,26.21
2022-08-18T07:13:16.344Z,26.20
2022-08-18T07:14:17.046Z,26.17
2022-08-18T07:15:16.424Z,26.21
2022-08-18T07:16:17.361Z,26.17
2022-08-18T07:17:16.503Z,26.27
2022-08-18T07:18:16.558Z,26.21
2022-08-18T07:19:16.616Z,26.21
2022-08-18T07:20:16.624Z,26.38
2022-08-18T07:21:16.665Z,26.24
2022-08-18T07:22:16.913Z,26.34
2022-08-18T07:23:16.762Z,26.32
2022-08-18T07:24:24.738Z,26.32
2022-08-18T07:25:16.824Z,26.42
2022-08-18T07:26:16.865Z,26.44
2022-08-18T07:27:16.906Z,26.41
2022-08-18T07:28:16.951Z,26.44
2022-08-18T07:29:17.000Z,26.47
2022-08-18T07:30:17.023Z,26.41
2022-08-18T07:31:17.743Z,26.46
2022-08-18T07:32:21.519Z,26.46
2022-08-18T07:33:17.147Z,26.54
2022-08-18T07:34:17.196Z,26.47
2022-08-18T07:35:17.225Z,26.51
2022-08-18T07:36:17.268Z,26.66
2022-08-18T07:37:17.305Z,26.56
2022-08-18T07:38:41.045Z,26.53
2022-08-18T07:39:17.388Z,26.56
2022-08-18T07:40:17.495Z,26.61
2022-08-18T07:41:17.467Z,26.56
2022-08-18T07:42:17.506Z,26.65
2022-08-18T07:43:17.550Z,26.61
2022-08-18T07:44:17.591Z,26.65
2022-08-18T07:45:17.628Z,26.65
2022-08-18T07:46:17.670Z,26.69
2022-08-18T07:47:17.717Z,26.71
2022-08-18T07:48:44.159Z,26.71
2022-08-18T07:49:21.862Z,26.76
2022-08-18T07:50:36.179Z,26.71
2022-08-18T07:51:17.873Z,26.79
2022-08-18T07:52:35.893Z,26.86
2022-08-18T07:53:17.956Z,26.81
2022-08-18T07:54:45.505Z,26.79
2022-08-18T07:55:18.029Z,26.83
2022-08-18T07:56:18.071Z,26.83
2022-08-18T07:57:20.265Z,26.84
2022-08-18T07:58:18.154Z,26.84
2022-08-18T07:59:18.193Z,26.88
2022-08-18T08:00:30.541Z,26.98
2022-08-18T08:01:18.333Z,26.93
2022-08-18T08:02:18.376Z,26.88
2022-08-18T08:03:18.353Z,27.01
2022-08-18T08:04:25.852Z,26.97
2022-08-18T08:05:18.435Z,27.03
2022-08-18T08:06:18.472Z,27.01
2022-08-18T08:07:24.627Z,26.97
2022-08-18T08:08:19.106Z,27.03
2022-08-18T08:09:18.596Z,27.02
2022-08-18T08:10:18.636Z,27.02
2022-08-18T08:11:18.683Z,27.05
2022-08-18T08:12:18.719Z,27.12
2022-08-18T08:13:36.975Z,27.13
2022-08-18T08:14:22.877Z,27.21
2022-08-18T08:15:18.841Z,27.16
2022-08-18T08:16:18.883Z,27.21
2022-08-18T08:17:18.919Z,27.23
2022-08-18T08:18:18.962Z,27.16
2022-08-18T08:19:31.489Z,27.20
2022-08-18T08:20:19.041Z,27.24
2022-08-18T08:21:19.086Z,27.21
2022-08-18T08:22:19.122Z,27.30
2022-08-18T08:23:19.162Z,27.35
2022-08-18T08:24:19.205Z,27.31
2022-08-18T08:25:42.909Z,27.30
2022-08-18T08:26:19.286Z,27.35
2022-08-18T08:27:19.323Z,27.31
2022-08-18T08:28:19.371Z,27.42
2022-08-18T08:29:19.416Z,27.35
2022-08-18T08:30:19.445Z,27.43
2022-08-18T08:31:36.265Z,27.46
2022-08-18T08:32:19.531Z,27.52
2022-08-18T08:33:19.568Z,27.49
2022-08-18T08:34:19.609Z,27.59
2022-08-18T08:35:50.481Z,27.50
2022-08-18T08:36:19.696Z,27.50
2022-08-18T08:37:19.730Z,27.58
2022-08-18T08:38:39.897Z,27.65
2022-08-18T08:39:19.812Z,27.63
2022-08-18T08:40:20.006Z,27.66
2022-08-18T08:41:19.909Z,27.66
2022-08-18T08:42:30.761Z,27.72
2022-08-18T08:43:19.976Z,27.72
2022-08-18T08:44:20.018Z,27.80
2022-08-18T08:45:20.056Z,27.76
2022-08-18T08:46:20.097Z,27.84
2022-08-18T08:47:23.455Z,27.88
2022-08-18T08:48:20.180Z,27.86
2022-08-18T08:49:20.223Z,27.83
2022-08-18T08:50:20.262Z,27.90
2022-08-18T08:51:20.305Z,27.84
2022-08-18T08:52:20.345Z,27.95
2022-08-18T08:53:20.385Z,27.91
2022-08-18T08:54:20.431Z,27.96
2022-08-18T08:55:20.465Z,27.98
2022-08-18T08:56:20.506Z,28.01
2022-08-18T08:57:20.551Z,28.06
2022-08-18T08:58:20.589Z,28.05
2022-08-18T08:59:20.630Z,28.11
2022-08-18T09:00:20.674Z,28.18
2022-08-18T09:01:20.758Z,28.25
2022-08-18T09:02:44.780Z,28.15
2022-08-18T09:03:30.143Z,28.21
2022-08-18T09:04:20.835Z,28.23
2022-08-18T09:05:20.874Z,28.20
2022-08-18T09:06:20.919Z,28.33
2022-08-18T09:07:20.956Z,28.32
2022-08-18T09:08:21.003Z,28.32
2022-08-18T09:09:21.042Z,28.42
2022-08-18T09:10:21.082Z,28.42
2022-08-18T09:11:21.125Z,28.39
2022-08-18T09:12:21.168Z,28.46
2022-08-18T09:13:24.369Z,28.52
2022-08-18T09:14:21.247Z,28.60
2022-08-18T09:15:21.286Z,28.64
2022-08-18T09:16:21.330Z,28.62
2022-08-18T09:17:21.367Z,28.70
2022-08-18T09:18:21.424Z,28.72
2022-08-18T09:19:21.450Z,28.80
2022-08-18T09:20:21.491Z,28.76
2022-08-18T09:21:21.534Z,28.83
2022-08-18T09:22:21.583Z,28.83
2022-08-18T09:23:21.616Z,29.03
2022-08-18T09:24:21.657Z,29.00
2022-08-18T09:25:21.698Z,29.10
2022-08-18T09:26:21.740Z,29.08
2022-08-18T09:27:21.780Z,29.12
2022-08-18T09:28:21.823Z,29.14
2022-08-18T09:29:21.864Z,29.25
2022-08-18T09:30:21.905Z,29.29
2022-08-18T09:31:21.947Z,29.29
2022-08-18T09:32:22.959Z,29.29
2022-08-18T09:33:22.028Z,29.33
2022-08-18T09:34:22.071Z,29.42
2022-08-18T09:35:23.124Z,29.45
2022-08-18T09:36:23.565Z,29.58
2022-08-18T09:37:24.295Z,29.69
2022-08-18T09:38:22.238Z,29.81
2022-08-18T09:39:23.213Z,29.89
2022-08-18T09:40:38.720Z,30.01
2022-08-18T09:41:22.402Z,30.08
2022-08-18T09:42:22.406Z,30.18
2022-08-18T09:43:22.446Z,30.26
2022-08-18T09:45:22.530Z,30.48
2022-08-18T09:46:22.572Z,30.59
2022-08-18T09:47:22.611Z,30.66
2022-08-18T09:48:25.419Z,30.73
2022-08-18T09:49:22.705Z,30.81
2022-08-18T09:50:27.232Z,30.81
2022-08-18T09:51:23.256Z,30.85
2022-08-18T09:53:22.864Z,31.04
2022-08-18T09:54:25.176Z,31.03
2022-08-18T09:55:22.948Z,31.10
2022-08-18T09:56:28.440Z,31.13
2022-08-18T09:57:23.033Z,31.16
2022-08-18T09:58:25.636Z,31.10
2022-08-18T09:59:23.118Z,31.13
2022-08-18T10:00:24.359Z,31.18
2022-08-18T10:01:23.295Z,31.31
2022-08-18T10:02:28.299Z,31.30
2022-08-18T10:03:25.424Z,31.42
2022-08-18T10:04:29.242Z,31.40
2022-08-18T10:05:23.371Z,31.57
2022-08-18T10:06:26.823Z,31.72
2022-08-18T10:07:23.461Z,31.71
2022-08-18T10:08:23.977Z,31.82
2022-08-18T10:09:27.076Z,31.87
2022-08-18T10:11:23.631Z,31.87
2022-08-18T10:12:23.671Z,31.88
2022-08-18T10:13:24.943Z,31.82
2022-08-18T10:14:23.756Z,31.97
2022-08-18T10:15:32.901Z,31.97
2022-08-18T10:16:23.856Z,31.97
2022-08-18T10:17:24.759Z,32.12
2022-08-18T10:18:23.930Z,32.14
2022-08-18T10:19:34.037Z,32.19
2022-08-18T10:21:24.534Z,32.34
2022-08-18T10:23:24.141Z,32.54
2022-08-18T10:24:39.645Z,32.59
2022-08-18T10:25:24.237Z,32.72
2022-08-18T10:26:24.274Z,32.76
2022-08-18T10:27:24.333Z,32.77
2022-08-18T10:28:24.358Z,32.95
2022-08-18T10:29:24.417Z,32.93
2022-08-18T10:30:24.452Z,32.95
2022-08-18T10:31:27.277Z,33.02
2022-08-18T10:32:24.532Z,33.03
2022-08-18T10:33:24.572Z,33.06
2022-08-18T10:34:24.825Z,33.14
2022-08-18T10:35:32.662Z,33.18
2022-08-18T10:36:24.705Z,33.20
2022-08-18T10:37:26.017Z,33.22
2022-08-18T10:38:24.792Z,33.26
2022-08-18T10:39:24.835Z,33.24
2022-08-18T10:40:26.491Z,33.22
2022-08-18T10:41:24.927Z,33.24
2022-08-18T10:42:31.060Z,33.18
2022-08-18T10:43:46.152Z,33.17
2022-08-18T10:45:25.416Z,33.17
2022-08-18T10:46:27.728Z,33.18
2022-08-18T10:47:25.181Z,33.20
2022-08-18T10:48:26.626Z,33.21
2022-08-18T10:49:25.409Z,33.29
2022-08-18T10:50:25.316Z,33.20
2022-08-18T10:51:25.359Z,33.31
2022-08-18T10:52:25.434Z,33.41
2022-08-18T10:54:50.893Z,33.49
2022-08-18T10:57:44.393Z,33.74
2022-08-18T10:58:44.434Z,33.78
2022-08-18T11:00:48.511Z,33.93
2022-08-18T11:01:48.554Z,34.00
2022-08-18T11:04:59.043Z,34.24
2022-08-18T11:06:56.780Z,34.50
2022-08-18T11:07:58.635Z,34.46
2022-08-18T11:10:30.073Z,34.67
2022-08-18T11:11:24.788Z,34.81
2022-08-18T11:14:01.027Z,34.99
2022-08-18T11:15:01.059Z,35.03
2022-08-18T11:16:01.105Z,35.15
2022-08-18T11:17:01.155Z,35.20
2022-08-18T11:18:01.191Z,35.25
2022-08-18T11:19:01.239Z,35.25
2022-08-18T11:20:01.280Z,35.42
2022-08-18T11:21:01.326Z,35.44
2022-08-18T11:22:01.371Z,35.55
2022-08-18T11:23:01.422Z,35.62
2022-08-18T11:24:01.461Z,35.65
2022-08-18T11:25:01.528Z,35.71
2022-08-18T11:26:01.548Z,35.84
2022-08-18T11:27:01.593Z,35.73
2022-08-18T11:28:01.643Z,35.62
2022-08-18T11:29:01.702Z,35.61
2022-08-18T11:30:01.727Z,35.64
2022-08-18T11:31:01.800Z,35.65
2022-08-18T11:33:02.839Z,35.66
2022-08-18T11:34:01.908Z,35.64
2022-08-18T11:35:01.960Z,35.73
2022-08-18T11:36:02.000Z,35.68
2022-08-18T11:37:02.059Z,35.85
2022-08-18T11:38:02.091Z,35.85
2022-08-18T11:39:02.137Z,35.95
2022-08-18T11:40:02.281Z,35.98
2022-08-18T11:41:09.503Z,36.05
2022-08-18T11:42:02.287Z,36.08
2022-08-18T11:43:02.318Z,36.08
2022-08-18T11:44:02.360Z,36.05
2022-08-18T11:45:02.669Z,36.19
2022-08-18T11:46:02.460Z,36.22
2022-08-18T11:47:02.500Z,36.35
2022-08-18T11:48:02.550Z,36.38
2022-08-18T11:49:04.410Z,36.34
2022-08-18T11:50:04.441Z,36.43
2022-08-18T11:51:02.868Z,36.46
2022-08-18T11:52:03.522Z,36.41
2022-08-18T11:53:02.771Z,36.55
2022-08-18T11:54:02.832Z,36.56
2022-08-18T11:55:14.329Z,36.60
2022-08-18T11:56:02.907Z,36.59
2022-08-18T11:57:02.954Z,36.65
2022-08-18T11:58:03.001Z,36.75
2022-08-18T11:59:03.154Z,36.77
2022-08-18T12:00:03.089Z,36.78
2022-08-18T12:01:03.424Z,36.82
2022-08-18T12:02:03.181Z,36.86
2022-08-18T12:03:03.232Z,36.79
2022-08-18T12:04:03.272Z,36.87
2022-08-18T12:05:08.717Z,36.89
2022-08-18T12:06:03.363Z,37.02
2022-08-18T12:07:04.559Z,37.11
2022-08-18T12:08:06.335Z,37.18
2022-08-18T12:09:03.505Z,37.23
2022-08-18T12:10:18.410Z,37.35
2022-08-18T12:11:03.595Z,37.38
2022-08-18T12:12:03.642Z,37.38
2022-08-18T12:13:03.687Z,37.47
2022-08-18T12:14:31.725Z,37.54
2022-08-18T12:15:13.737Z,37.56
2022-08-18T12:16:03.828Z,37.60
2022-08-18T12:17:03.872Z,37.68
2022-08-18T12:18:03.916Z,37.69
2022-08-18T12:19:05.408Z,37.65
2022-08-18T12:20:04.010Z,37.66
2022-08-18T12:21:04.081Z,37.66
2022-08-18T12:22:11.681Z,37.69
2022-08-18T12:23:04.150Z,37.78
2022-08-18T12:24:04.196Z,37.69
2022-08-18T12:25:04.244Z,37.66
2022-08-18T12:26:04.288Z,37.70
2022-08-18T12:27:12.318Z,37.63
2022-08-18T12:28:04.381Z,37.50
2022-08-18T12:29:04.446Z,37.47
2022-08-18T12:30:04.477Z,37.43
2022-08-18T12:31:06.050Z,37.45
2022-08-18T12:32:08.626Z,37.40
2022-08-18T12:33:10.147Z,37.40
2022-08-18T12:34:04.663Z,37.43
2022-08-18T12:35:09.097Z,37.46
2022-08-18T12:36:04.755Z,37.42
2022-08-18T12:37:10.342Z,37.53
2022-08-18T12:38:12.373Z,37.54
2022-08-18T12:39:04.896Z,37.60
2022-08-18T12:40:06.124Z,37.62
2022-08-18T12:41:04.991Z,37.60
2022-08-18T12:42:05.033Z,37.69
2022-08-18T12:43:05.187Z,37.58
2022-08-18T12:45:05.176Z,37.59
2022-08-18T12:46:05.221Z,37.56
2022-08-18T12:47:05.270Z,37.59
2022-08-18T12:48:05.319Z,37.46
2022-08-18T12:49:05.363Z,37.46
2022-08-18T12:50:05.454Z,37.58
2022-08-18T12:51:05.885Z,37.56
2022-08-18T12:52:05.506Z,37.58
2022-08-18T12:53:05.555Z,37.58
2022-08-18T12:54:05.593Z,37.59
2022-08-18T12:55:05.649Z,37.59
2022-08-18T12:56:05.687Z,37.59
2022-08-18T12:57:06.698Z,37.58
2022-08-18T12:58:05.781Z,37.70
2022-08-18T12:59:05.828Z,37.63
2022-08-18T13:00:06.013Z,37.56
2022-08-18T13:01:05.987Z,37.59
2022-08-18T13:02:05.966Z,37.56
2022-08-18T13:03:06.015Z,37.54
2022-08-18T13:04:13.090Z,37.54
2022-08-18T13:05:06.156Z,37.49
2022-08-18T13:06:06.159Z,37.45
2022-08-18T13:07:06.267Z,37.43
2022-08-18T13:08:06.248Z,37.39
2022-08-18T13:09:16.303Z,37.39
2022-08-18T13:10:06.340Z,37.30
2022-08-18T13:11:20.872Z,37.20
2022-08-18T13:12:09.979Z,37.06